createdAt,value
2019-04-13T00:02:02.165Z,5.20
2019-04-13T00:05:09.990Z,5.27
2019-04-13T00:11:27.186Z,5.25
2019-04-13T00:13:56.644Z,3.49
2019-04-13T00:16:45.422Z,5.12
2019-04-13T00:19:34.212Z,5.20
2019-04-13T00:22:22.996Z,5.03
2019-04-13T00:25:11.786Z,4.55
2019-04-13T00:28:00.573Z,5.02
2019-04-13T00:30:49.370Z,4.78
2019-04-13T00:33:38.145Z,4.93
2019-04-13T00:36:26.935Z,4.90
2019-04-13T00:39:34.751Z,4.67
2019-04-13T00:42:23.546Z,3.05
2019-04-13T00:45:12.392Z,2.96
2019-04-13T00:48:01.179Z,4.81
2019-04-13T00:50:49.976Z,3.16
2019-04-13T00:53:38.771Z,5.00
2019-04-13T00:56:27.622Z,4.22
2019-04-13T00:59:09.234Z,4.93
2019-04-13T01:01:58.099Z,4.87
2019-04-13T01:04:53.355Z,4.90
2019-04-13T01:07:37.450Z,5.01
2019-04-13T01:10:26.220Z,4.88
2019-04-13T01:13:15.008Z,4.81
2019-04-13T01:16:03.812Z,4.79
2019-04-13T01:22:07.663Z,4.81
2019-04-13T01:24:56.445Z,4.41
2019-04-13T01:27:45.244Z,5.01
2019-04-13T01:30:34.018Z,4.83
2019-04-13T01:33:22.814Z,4.91
2019-04-13T01:36:11.591Z,4.98
2019-04-13T01:39:00.387Z,4.95
2019-04-13T01:41:49.173Z,5.00
2019-04-13T01:44:37.974Z,5.01
2019-04-13T01:47:26.804Z,5.03
2019-04-13T01:50:15.565Z,4.34
2019-04-13T01:53:04.376Z,5.05
2019-04-13T01:55:53.504Z,3.56
2019-04-13T01:58:35.479Z,4.92
2019-04-13T02:01:24.043Z,5.00
2019-04-13T02:07:41.264Z,5.23
2019-04-13T02:10:49.071Z,5.00
2019-04-13T02:13:37.854Z,5.05
2019-04-13T02:16:26.650Z,5.15
2019-04-13T02:19:15.429Z,4.79
2019-04-13T02:22:04.219Z,4.93
2019-04-13T02:24:52.997Z,4.94
2019-04-13T02:27:41.795Z,4.84
2019-04-13T02:30:30.580Z,4.87
2019-04-13T02:33:21.758Z,4.90
2019-04-13T02:36:09.890Z,4.96
2019-04-13T02:38:58.692Z,5.01
2019-04-13T02:41:47.715Z,4.85
2019-04-13T02:44:36.504Z,4.85
2019-04-13T02:47:25.299Z,4.83
2019-04-13T02:50:14.456Z,4.15
2019-04-13T02:53:03.241Z,3.15
2019-04-13T02:55:52.034Z,2.85
2019-04-13T02:58:40.885Z,4.52
2019-04-13T03:01:23.028Z,4.44
2019-04-13T03:04:11.989Z,4.53
2019-04-13T03:07:00.883Z,4.57
2019-04-13T03:09:49.671Z,4.71
2019-04-13T03:12:38.458Z,3.73
2019-04-13T03:15:46.345Z,4.65
2019-04-13T03:21:44.520Z,4.59
2019-04-13T03:24:33.302Z,4.61
2019-04-13T03:27:22.103Z,4.57
2019-04-13T03:33:07.129Z,4.60
2019-04-13T03:35:59.568Z,4.42
2019-04-13T03:38:46.510Z,4.42
2019-04-13T03:41:56.053Z,4.30
2019-04-13T03:44:44.863Z,4.48
2019-04-13T03:47:33.642Z,4.51
2019-04-13T03:50:22.502Z,3.76
2019-04-13T03:53:11.293Z,4.54
2019-04-13T03:56:00.084Z,4.46
2019-04-13T03:58:48.862Z,4.48
2019-04-13T04:01:30.302Z,4.46
2019-04-13T04:04:19.092Z,4.30
2019-04-13T04:07:07.891Z,3.79
2019-04-13T04:09:57.031Z,4.43
2019-04-13T04:12:45.805Z,4.20
2019-04-13T04:15:34.699Z,4.21
2019-04-13T04:18:23.527Z,4.31
2019-04-13T04:21:12.311Z,4.31
2019-04-13T04:24:01.115Z,4.47
2019-04-13T04:26:49.907Z,4.54
2019-04-13T04:29:38.725Z,4.47
2019-04-13T04:32:27.530Z,4.70
2019-04-13T04:35:16.311Z,4.67
2019-04-13T04:38:05.111Z,4.88
2019-04-13T04:40:53.888Z,3.93
2019-04-13T04:43:42.707Z,4.88
2019-04-13T04:46:31.671Z,4.83
2019-04-13T04:49:20.561Z,4.75
2019-04-13T04:52:28.492Z,4.88
2019-04-13T04:55:17.398Z,4.91
2019-04-13T04:58:06.278Z,4.90
2019-04-13T05:00:47.737Z,4.88
2019-04-13T05:03:36.515Z,4.87
2019-04-13T05:06:35.452Z,3.51
2019-04-13T05:09:15.842Z,5.00
2019-04-13T05:12:04.640Z,4.96
2019-04-13T05:14:53.447Z,5.05
2019-04-13T05:17:42.228Z,5.07
2019-04-13T05:20:31.026Z,5.07
2019-04-13T05:23:19.812Z,4.86
2019-04-13T05:26:08.610Z,4.72
2019-04-13T05:28:57.401Z,4.70
2019-04-13T05:31:46.205Z,5.16
2019-04-13T05:34:34.984Z,5.32
2019-04-13T05:37:23.775Z,5.42
2019-04-13T05:40:12.684Z,4.43
2019-04-13T05:43:01.478Z,5.41
2019-04-13T05:45:50.266Z,5.27
2019-04-13T05:48:39.050Z,5.36
2019-04-13T05:51:27.842Z,4.05
2019-04-13T05:54:16.619Z,5.55
2019-04-13T05:57:05.417Z,5.51
2019-04-13T05:59:47.208Z,5.74
2019-04-13T06:02:36.065Z,5.79
2019-04-13T06:05:24.847Z,5.68
2019-04-13T06:08:13.628Z,5.60
2019-04-13T06:11:03.387Z,5.58
2019-04-13T06:13:52.927Z,5.77
2019-04-13T06:16:41.722Z,5.85
2019-04-13T06:19:30.498Z,5.92
2019-04-13T06:22:19.299Z,5.97
2019-04-13T06:28:36.565Z,5.21
2019-04-13T06:31:44.377Z,6.33
2019-04-13T06:34:52.198Z,6.49
2019-04-13T06:37:40.986Z,6.24
2019-04-13T06:40:29.783Z,6.60
2019-04-13T06:43:18.561Z,6.93
2019-04-13T06:46:07.430Z,5.09
2019-04-13T06:48:56.205Z,7.06
2019-04-13T06:51:45.008Z,7.11
2019-04-13T06:54:33.789Z,7.26
2019-04-13T06:57:22.592Z,6.89
2019-04-13T07:00:06.357Z,7.07
2019-04-13T07:02:55.142Z,7.08
2019-04-13T07:05:43.930Z,7.06
2019-04-13T07:08:52.517Z,7.12
2019-04-13T07:14:53.512Z,7.51
2019-04-13T07:20:32.223Z,7.61
2019-04-13T07:23:25.199Z,7.83
2019-04-13T07:26:11.520Z,8.08
2019-04-13T07:29:00.326Z,8.05
2019-04-13T07:31:49.193Z,7.56
2019-04-13T07:34:37.971Z,7.11
2019-04-13T07:37:36.201Z,8.51
2019-04-13T07:40:20.666Z,8.45
2019-04-13T07:46:20.702Z,8.27
2019-04-13T07:49:28.535Z,8.15
2019-04-13T07:52:36.342Z,7.93
2019-04-13T07:55:25.156Z,6.90
2019-04-13T07:58:16.677Z,6.01
2019-04-13T08:00:58.784Z,7.72
2019-04-13T08:03:47.857Z,8.02
2019-04-13T08:06:37.045Z,8.23
2019-04-13T08:09:27.223Z,8.23
2019-04-13T08:12:17.115Z,7.16
2019-04-13T08:18:35.410Z,7.15
2019-04-13T08:21:24.263Z,9.11
2019-04-13T08:24:13.053Z,9.47
2019-04-13T08:27:01.833Z,9.27
2019-04-13T08:29:50.623Z,9.47
2019-04-13T08:32:39.436Z,9.75
2019-04-13T08:35:28.224Z,8.08
2019-04-13T08:38:17.003Z,9.70
2019-04-13T08:41:11.166Z,9.76
2019-04-13T08:43:56.298Z,10.06
2019-04-13T08:49:52.916Z,10.86
2019-04-13T08:52:41.701Z,11.13
2019-04-13T08:55:30.491Z,11.03
2019-04-13T08:58:19.664Z,10.71
2019-04-13T09:01:02.787Z,10.31
2019-04-13T09:03:51.593Z,10.18
2019-04-13T09:06:40.389Z,10.24
2019-04-13T09:09:29.655Z,8.88
2019-04-13T09:12:20.485Z,8.33
2019-04-13T09:15:10.428Z,10.11
2019-04-13T09:18:18.633Z,9.78
2019-04-13T09:24:06.611Z,7.12
2019-04-13T09:26:55.378Z,6.28
2019-04-13T09:29:44.519Z,7.59
2019-04-13T09:32:34.671Z,7.51
2019-04-13T09:35:25.471Z,8.11
2019-04-13T09:38:14.004Z,8.48
2019-04-13T09:44:16.468Z,8.97
2019-04-13T09:53:19.833Z,8.47
2019-04-13T09:56:09.790Z,7.67
2019-04-13T09:58:58.582Z,6.85
2019-04-13T10:01:47.355Z,8.32
2019-04-13T10:04:36.158Z,8.68
2019-04-13T10:07:24.933Z,7.70
2019-04-13T10:10:13.735Z,8.83
2019-04-13T10:13:21.800Z,7.78
2019-04-13T10:16:29.615Z,6.15
2019-04-13T10:19:18.418Z,8.23
2019-04-13T10:22:07.211Z,8.10
2019-04-13T10:24:55.999Z,8.28
2019-04-13T10:27:47.667Z,8.20
2019-04-13T10:30:35.314Z,8.96
2019-04-13T10:33:24.103Z,9.44
2019-04-13T10:36:13.211Z,9.26
2019-04-13T10:39:08.372Z,9.75
2019-04-13T10:41:53.104Z,7.99
2019-04-13T10:48:01.113Z,9.59
2019-04-13T10:51:08.940Z,9.35
2019-04-13T10:53:57.711Z,9.32
2019-04-13T10:57:05.525Z,8.81
2019-04-13T10:59:54.313Z,8.73
2019-04-13T11:02:34.070Z,8.40
2019-04-13T11:05:22.881Z,8.37
2019-04-13T11:08:11.729Z,8.29
2019-04-13T11:11:00.519Z,8.56
2019-04-13T11:13:49.298Z,7.62
2019-04-13T11:16:38.101Z,8.82
2019-04-13T11:19:26.871Z,7.91
2019-04-13T11:22:15.675Z,8.85
2019-04-13T11:28:33.708Z,9.99
2019-04-13T11:31:23.156Z,10.64
2019-04-13T11:34:13.002Z,11.21
2019-04-13T11:37:01.768Z,11.10
2019-04-13T11:39:50.592Z,11.59
2019-04-13T11:42:39.177Z,11.20
2019-04-13T11:45:46.999Z,11.78
2019-04-13T11:48:35.545Z,11.74
2019-04-13T11:51:25.975Z,11.50
2019-04-13T11:54:14.758Z,10.46
2019-04-13T11:57:03.556Z,10.32
2019-04-13T11:59:52.327Z,9.74
2019-04-13T12:02:38.254Z,8.84
2019-04-13T12:05:46.026Z,9.54
2019-04-13T12:08:53.845Z,9.21
2019-04-13T12:14:51.990Z,8.76
2019-04-13T12:18:01.294Z,6.91
2019-04-13T12:21:09.120Z,9.31
2019-04-13T12:27:07.358Z,9.24
2019-04-13T12:29:56.133Z,10.50
2019-04-13T12:32:47.090Z,11.19
2019-04-13T12:35:35.449Z,11.07
2019-04-13T12:38:24.229Z,10.54
2019-04-13T12:41:32.047Z,10.08
2019-04-13T12:44:14.165Z,9.33
2019-04-13T12:49:58.678Z,7.91
2019-04-13T12:52:47.473Z,7.31
2019-04-13T12:55:36.265Z,6.44
2019-04-13T12:58:25.059Z,6.80
2019-04-13T13:01:32.932Z,6.59
2019-04-13T13:07:17.162Z,6.56
2019-04-13T13:10:26.852Z,6.44
2019-04-13T13:13:15.640Z,6.66
2019-04-13T13:16:04.421Z,6.79
2019-04-13T13:18:53.212Z,5.69
2019-04-13T13:21:41.986Z,6.81
2019-04-13T13:24:30.773Z,6.78
2019-04-13T13:27:19.572Z,6.90
2019-04-13T13:33:23.064Z,7.33
2019-04-13T13:36:11.840Z,6.72
2019-04-13T13:39:00.631Z,6.46
2019-04-13T13:41:49.416Z,6.62
2019-04-13T13:44:30.824Z,6.64
2019-04-13T13:47:19.611Z,5.28
2019-04-13T13:53:23.897Z,7.22
2019-04-13T13:56:12.677Z,6.68
2019-04-13T14:04:53.446Z,7.91
2019-04-13T14:07:42.242Z,8.20
2019-04-13T14:10:42.364Z,8.44
2019-04-13T14:13:21.554Z,8.12
2019-04-13T14:19:04.713Z,8.62
2019-04-13T14:21:53.506Z,8.31
2019-04-13T14:24:42.282Z,7.58
2019-04-13T14:27:31.076Z,8.21
2019-04-13T14:30:19.855Z,9.55
2019-04-13T14:33:08.724Z,9.93
2019-04-13T14:35:57.504Z,10.96
2019-04-13T14:38:46.377Z,11.39
2019-04-13T14:41:35.158Z,10.34
2019-04-13T14:44:23.959Z,10.54
2019-04-13T14:47:06.510Z,8.98
2019-04-13T14:49:58.419Z,9.06
2019-04-13T14:52:45.815Z,8.68
2019-04-13T14:55:34.582Z,8.24
2019-04-13T14:58:23.371Z,7.93
2019-04-13T15:01:12.160Z,7.04
2019-04-13T15:04:00.964Z,6.74
2019-04-13T15:06:49.734Z,6.61
2019-04-13T15:09:38.522Z,4.78
2019-04-13T15:12:27.301Z,6.41
2019-04-13T15:15:16.097Z,6.42
2019-04-13T15:21:15.521Z,6.07
2019-04-13T15:24:24.491Z,6.67
2019-04-13T15:33:12.578Z,7.48
2019-04-13T15:39:04.178Z,6.78
2019-04-13T15:42:03.112Z,7.96
2019-04-13T15:44:34.858Z,7.93
2019-04-13T15:47:27.136Z,7.94
2019-04-13T15:50:16.921Z,7.84
2019-04-13T15:53:04.689Z,7.52
2019-04-13T15:55:54.608Z,7.84
2019-04-13T15:58:44.667Z,8.27
2019-04-13T16:01:34.620Z,8.21
2019-04-13T16:04:45.594Z,8.30
2019-04-13T16:07:34.514Z,8.37
2019-04-13T16:10:24.684Z,9.06
2019-04-13T16:16:24.052Z,9.95
2019-04-13T16:19:13.607Z,10.09
2019-04-13T16:22:04.651Z,10.31
2019-04-13T16:24:54.677Z,10.48
2019-04-13T16:30:59.572Z,10.86
2019-04-13T16:34:07.738Z,10.76
2019-04-13T16:39:53.526Z,11.68
2019-04-13T16:42:43.247Z,11.19
2019-04-13T16:45:52.862Z,9.41
2019-04-13T16:49:07.534Z,11.55
2019-04-13T16:52:11.337Z,12.57
2019-04-13T17:01:14.680Z,12.82
2019-04-13T17:04:23.540Z,12.44
2019-04-13T17:07:13.995Z,13.36
2019-04-13T17:10:21.799Z,12.85
2019-04-13T17:13:11.740Z,10.53
2019-04-13T17:16:01.174Z,11.90
2019-04-13T17:19:09.764Z,13.65
2019-04-13T17:25:27.997Z,12.79
2019-04-13T17:31:45.201Z,12.55
2019-04-13T17:37:44.118Z,10.79
2019-04-13T17:43:54.969Z,9.76
2019-04-13T17:47:03.711Z,9.17
2019-04-13T17:50:11.542Z,8.85
2019-04-13T17:53:01.388Z,8.44
2019-04-13T17:59:19.767Z,7.88
2019-04-13T18:02:27.703Z,6.04
2019-04-13T18:05:35.812Z,7.23
2019-04-13T18:08:48.830Z,6.90
2019-04-13T18:11:53.441Z,6.65
2019-04-13T18:15:01.256Z,6.57
2019-04-13T18:20:45.619Z,5.55
2019-04-13T18:23:34.408Z,5.89
2019-04-13T18:26:23.216Z,5.80
2019-04-13T18:29:13.132Z,5.71
2019-04-13T18:32:03.010Z,5.67
2019-04-13T18:34:53.957Z,5.46
2019-04-13T18:37:43.633Z,5.42
2019-04-13T18:40:24.948Z,3.96
2019-04-13T18:43:19.409Z,3.61
2019-04-13T18:46:01.357Z,5.32
2019-04-13T18:48:48.871Z,5.09
2019-04-13T18:51:38.456Z,5.04
2019-04-13T18:54:28.003Z,5.03
2019-04-13T18:57:17.774Z,4.97
2019-04-13T19:00:27.828Z,3.42
2019-04-13T19:03:19.426Z,5.03
2019-04-13T19:06:08.548Z,4.80
2019-04-13T19:08:57.344Z,5.04
2019-04-13T19:11:46.137Z,4.98
2019-04-13T19:14:34.913Z,4.84
2019-04-13T19:17:23.725Z,4.82
2019-04-13T19:23:40.993Z,4.82
2019-04-13T19:26:29.773Z,4.76
2019-04-13T19:29:18.565Z,4.79
2019-04-13T19:32:07.345Z,4.72
2019-04-13T19:34:56.486Z,4.57
2019-04-13T19:41:06.479Z,4.76
2019-04-13T19:43:55.672Z,4.60
2019-04-13T19:46:44.554Z,4.23
2019-04-13T19:49:33.386Z,4.74
2019-04-13T19:52:43.048Z,4.77
2019-04-13T19:55:32.020Z,3.29
2019-04-13T19:58:20.873Z,4.64
2019-04-13T20:06:59.534Z,4.78
2019-04-13T20:09:48.331Z,4.83
2019-04-13T20:12:38.340Z,4.80
2019-04-13T20:15:27.727Z,4.82
2019-04-13T20:18:16.547Z,4.82
2019-04-13T20:21:05.449Z,3.72
2019-04-13T20:23:54.318Z,3.38
2019-04-13T20:26:43.151Z,4.65
2019-04-13T20:29:31.984Z,4.93
2019-04-13T20:32:21.052Z,4.89
2019-04-13T20:35:12.630Z,4.94
2019-04-13T20:38:02.040Z,4.95
2019-04-13T20:41:10.533Z,4.77
2019-04-13T20:43:59.608Z,4.32
2019-04-13T20:46:45.137Z,4.63
2019-04-13T20:49:34.778Z,4.71
2019-04-13T20:52:23.636Z,4.71
2019-04-13T20:55:13.354Z,4.73
2019-04-13T20:58:03.137Z,2.85
2019-04-13T21:00:52.972Z,3.63
2019-04-13T21:03:42.604Z,4.64
2019-04-13T21:06:33.018Z,4.18
2019-04-13T21:09:22.603Z,4.66
2019-04-13T21:15:07.600Z,4.61
2019-04-13T21:17:57.654Z,4.72
2019-04-13T21:20:47.789Z,4.63
2019-04-13T21:23:37.043Z,4.70
2019-04-13T21:26:27.103Z,4.70
2019-04-13T21:29:17.413Z,4.66
2019-04-13T21:32:07.517Z,4.50
2019-04-13T21:34:59.259Z,4.60
2019-04-13T21:37:48.789Z,4.57
2019-04-13T21:40:39.098Z,2.82
2019-04-13T21:43:29.904Z,4.73
2019-04-13T21:46:11.145Z,4.72
2019-04-13T21:49:01.151Z,4.57
2019-04-13T21:55:00.376Z,4.41
2019-04-13T21:58:09.976Z,4.39
2019-04-13T22:04:15.577Z,4.48
2019-04-13T22:10:20.290Z,4.55
2019-04-13T22:13:09.912Z,4.52
2019-04-13T22:16:01.598Z,4.51
2019-04-13T22:18:51.728Z,4.62
2019-04-13T22:21:41.557Z,4.71
2019-04-13T22:24:30.919Z,2.82
2019-04-13T22:27:20.890Z,3.20
2019-04-13T22:33:19.661Z,4.95
2019-04-13T22:36:29.025Z,4.95
2019-04-13T22:39:18.225Z,4.91
2019-04-13T22:42:08.275Z,5.01
2019-04-13T22:44:57.244Z,3.88
2019-04-13T22:51:09.917Z,4.40
2019-04-13T22:54:18.839Z,4.99
2019-04-13T22:57:28.273Z,4.88
2019-04-13T23:00:37.089Z,4.56
2019-04-13T23:06:20.674Z,4.69
2019-04-13T23:09:10.732Z,3.77
2019-04-13T23:12:01.086Z,4.83
2019-04-13T23:14:57.888Z,4.83
2019-04-13T23:17:22.313Z,2.76
2019-04-13T23:23:27.168Z,4.74
2019-04-13T23:26:16.886Z,4.78
2019-04-13T23:29:06.567Z,4.81
2019-04-13T23:31:56.438Z,4.95
2019-04-13T23:34:46.531Z,4.94
2019-04-13T23:37:36.632Z,5.01
2019-04-13T23:40:26.406Z,5.00
2019-04-13T23:43:16.839Z,4.41
2019-04-13T23:46:06.829Z,4.90
2019-04-13T23:48:56.974Z,4.90
2019-04-13T23:51:46.861Z,4.92
2019-04-13T23:54:36.886Z,5.00
